createdAt,value
2018-03-23T00:00:40.146Z,104.93
2018-03-23T00:03:10.994Z,113.83
2018-03-23T00:05:42.245Z,110.10
2018-03-23T00:08:14.465Z,134.93
2018-03-23T00:10:45.328Z,104.63
2018-03-23T00:13:15.878Z,110.00
2018-03-23T00:15:48.082Z,119.70
2018-03-23T00:18:18.731Z,115.83
2018-03-23T00:20:49.005Z,116.67
2018-03-23T00:23:19.795Z,113.43
2018-03-23T00:25:50.314Z,104.80
2018-03-23T00:28:20.876Z,114.67
2018-03-23T00:30:51.627Z,123.27
2018-03-23T00:33:21.965Z,123.60
2018-03-23T00:35:52.953Z,101.50
2018-03-23T00:38:23.993Z,99.47
2018-03-23T00:40:54.601Z,121.80
2018-03-23T00:43:26.008Z,135.93
2018-03-23T00:45:56.472Z,162.50
2018-03-23T00:48:27.492Z,123.70
2018-03-23T00:50:59.251Z,132.23
2018-03-23T00:53:30.450Z,126.83
2018-03-23T00:56:01.010Z,122.83
2018-03-23T00:58:31.616Z,121.37
2018-03-23T01:01:02.454Z,112.80
2018-03-23T01:03:33.008Z,151.30
2018-03-23T01:06:03.535Z,167.67
2018-03-23T01:08:34.253Z,190.57
2018-03-23T01:11:04.411Z,169.17
2018-03-23T01:13:35.564Z,163.37
2018-03-23T01:16:06.808Z,147.67
2018-03-23T01:18:38.387Z,149.33
2018-03-23T01:21:11.268Z,148.47
2018-03-23T01:23:41.980Z,158.87
2018-03-23T01:26:13.303Z,138.00
2018-03-23T01:28:44.154Z,142.13
2018-03-23T01:31:15.364Z,129.23
2018-03-23T01:33:45.355Z,152.60
2018-03-23T01:36:18.284Z,138.83
2018-03-23T01:38:49.913Z,146.97
2018-03-23T01:41:21.867Z,130.70
2018-03-23T01:43:54.096Z,131.40
2018-03-23T01:46:26.118Z,121.33
2018-03-23T01:48:57.988Z,114.20
2018-03-23T01:51:31.194Z,138.80
2018-03-23T01:54:02.161Z,122.53
2018-03-23T01:56:36.617Z,120.63
2018-03-23T01:59:08.541Z,144.00
2018-03-23T02:01:39.416Z,114.77
2018-03-23T02:04:12.972Z,125.33
2018-03-23T02:06:45.878Z,126.87
2018-03-23T02:09:16.699Z,135.43
2018-03-23T02:11:48.302Z,126.40
2018-03-23T02:14:19.435Z,115.20
2018-03-23T02:16:49.769Z,125.90
2018-03-23T02:19:20.126Z,121.37
2018-03-23T02:21:50.830Z,140.63
2018-03-23T02:24:20.481Z,115.23
2018-03-23T02:26:51.174Z,113.20
2018-03-23T02:29:21.235Z,104.33
2018-03-23T02:31:52.737Z,119.23
2018-03-23T02:34:30.262Z,126.93
2018-03-23T02:37:13.279Z,111.00
2018-03-23T02:39:43.930Z,108.93
2018-03-23T02:42:14.806Z,131.10
2018-03-23T02:44:45.427Z,142.97
2018-03-23T02:47:15.839Z,137.97
2018-03-23T02:49:46.240Z,116.90
2018-03-23T02:52:16.494Z,135.73
2018-03-23T02:54:52.337Z,123.17
2018-03-23T02:57:22.588Z,139.97
2018-03-23T02:59:53.183Z,117.47
2018-03-23T03:02:27.175Z,112.00
2018-03-23T03:04:58.290Z,131.77
2018-03-23T03:07:27.925Z,135.57
2018-03-23T03:09:57.691Z,118.23
2018-03-23T03:12:27.336Z,116.67
2018-03-23T03:14:58.342Z,114.70
2018-03-23T03:17:28.638Z,122.83
2018-03-23T03:20:05.818Z,133.43
2018-03-23T03:22:35.989Z,131.90
2018-03-23T03:25:05.456Z,118.50
2018-03-23T03:27:34.827Z,130.57
2018-03-23T03:30:04.692Z,114.13
2018-03-23T03:32:34.054Z,129.47
2018-03-23T03:35:04.968Z,136.83
2018-03-23T03:37:34.899Z,126.10
2018-03-23T03:40:04.788Z,128.97
2018-03-23T03:42:34.308Z,121.13
2018-03-23T03:45:03.805Z,110.10
2018-03-23T03:47:33.298Z,118.90
2018-03-23T03:50:02.854Z,106.13
2018-03-23T03:52:32.283Z,133.47
2018-03-23T03:55:01.801Z,136.80
2018-03-23T03:57:31.209Z,165.03
2018-03-23T04:00:00.695Z,165.87
2018-03-23T04:02:30.034Z,187.97
2018-03-23T04:04:59.625Z,178.27
2018-03-23T04:07:29.253Z,167.13
2018-03-23T04:09:59.369Z,209.83
2018-03-23T04:12:29.068Z,185.10
2018-03-23T04:14:58.380Z,186.80
2018-03-23T04:17:28.958Z,190.30
2018-03-23T04:19:59.186Z,189.10
2018-03-23T04:22:28.689Z,180.57
2018-03-23T04:24:58.464Z,185.90
2018-03-23T04:27:30.100Z,176.97
2018-03-23T04:29:59.724Z,170.40
2018-03-23T04:32:31.570Z,172.13
2018-03-23T04:35:01.836Z,164.50
2018-03-23T04:37:32.013Z,147.97
2018-03-23T04:40:02.093Z,142.67
2018-03-23T04:42:31.884Z,148.27
2018-03-23T04:45:02.919Z,132.20
2018-03-23T04:47:32.550Z,153.80
2018-03-23T04:50:02.071Z,128.70
2018-03-23T04:52:31.553Z,139.10
2018-03-23T04:55:01.096Z,141.97
2018-03-23T04:57:30.962Z,125.03
2018-03-23T05:00:01.258Z,125.03
2018-03-23T05:02:30.622Z,113.47
2018-03-23T05:05:00.437Z,101.63
2018-03-23T05:07:32.122Z,110.57
2018-03-23T05:10:02.567Z,137.33
2018-03-23T05:12:32.916Z,132.20
2018-03-23T05:15:02.609Z,100.67
2018-03-23T05:17:32.910Z,109.80
2018-03-23T05:20:02.977Z,95.63
2018-03-23T05:22:32.432Z,103.10
2018-03-23T05:25:02.032Z,102.40
2018-03-23T05:27:33.097Z,117.53
2018-03-23T05:30:03.557Z,76.83
2018-03-23T05:32:33.202Z,99.07
2018-03-23T05:35:03.267Z,94.50
2018-03-23T05:37:33.753Z,94.37
2018-03-23T05:40:03.890Z,92.47
2018-03-23T05:42:33.529Z,98.97
2018-03-23T05:45:03.508Z,84.13
2018-03-23T05:47:34.595Z,90.67
2018-03-23T05:50:06.302Z,86.93
2018-03-23T05:52:49.261Z,82.77
2018-03-23T05:55:26.614Z,98.67
2018-03-23T05:57:59.713Z,84.80
2018-03-23T06:00:30.614Z,92.90
2018-03-23T06:03:02.057Z,88.87
2018-03-23T06:05:34.722Z,77.43
2018-03-23T06:08:06.162Z,80.07
2018-03-23T06:10:41.073Z,78.73
2018-03-23T06:13:13.215Z,94.97
2018-03-23T06:15:45.422Z,72.47
2018-03-23T06:18:15.760Z,82.93
2018-03-23T06:20:47.719Z,85.33
2018-03-23T06:23:19.251Z,86.07
2018-03-23T06:25:50.687Z,88.47
2018-03-23T06:28:22.217Z,87.50
2018-03-23T06:30:52.739Z,74.53
2018-03-23T06:33:23.069Z,77.60
2018-03-23T06:35:54.456Z,95.23
2018-03-23T06:38:26.043Z,79.20
2018-03-23T06:40:56.778Z,79.47
2018-03-23T06:43:31.158Z,84.67
2018-03-23T06:46:05.937Z,98.00
2018-03-23T06:48:36.670Z,73.40
2018-03-23T06:51:07.415Z,81.00
2018-03-23T06:53:37.601Z,72.80
2018-03-23T06:56:08.144Z,72.53
2018-03-23T06:58:40.032Z,87.90
2018-03-23T07:01:10.786Z,82.10
2018-03-23T07:03:42.614Z,74.37
2018-03-23T07:06:15.580Z,79.90
2018-03-23T07:08:46.498Z,73.57
2018-03-23T07:11:18.971Z,80.63
2018-03-23T07:13:51.147Z,80.13
2018-03-23T07:16:22.932Z,62.57
2018-03-23T07:18:53.267Z,66.20
2018-03-23T07:21:24.650Z,79.00
2018-03-23T07:23:55.180Z,68.70
2018-03-23T07:26:26.510Z,72.10
2018-03-23T07:28:57.971Z,74.60
2018-03-23T07:31:32.373Z,70.73
2018-03-23T07:34:16.242Z,68.20
2018-03-23T07:36:48.575Z,83.87
2018-03-23T07:39:23.526Z,83.67
2018-03-23T07:42:02.076Z,60.13
2018-03-23T07:44:33.319Z,66.17
2018-03-23T07:47:04.777Z,77.53
2018-03-23T07:49:38.356Z,86.90
2018-03-23T07:52:17.776Z,68.77
2018-03-23T07:55:12.789Z,65.37
2018-03-23T07:57:46.506Z,62.37
2018-03-23T08:00:18.806Z,71.60
2018-03-23T08:02:52.132Z,90.63
2018-03-23T08:05:26.741Z,58.47
2018-03-23T08:07:58.928Z,71.03
2018-03-23T08:10:30.490Z,59.93
2018-03-23T08:13:04.009Z,58.43
2018-03-23T08:15:37.191Z,62.83
2018-03-23T08:18:08.724Z,55.83
2018-03-23T08:20:44.286Z,64.93
2018-03-23T08:23:14.654Z,49.77
2018-03-23T08:25:46.069Z,52.90
2018-03-23T08:28:19.957Z,45.07
2018-03-23T08:30:50.366Z,47.57
2018-03-23T08:33:21.338Z,61.90
2018-03-23T08:35:54.902Z,51.87
2018-03-23T08:38:26.072Z,66.90
2018-03-23T08:40:56.561Z,57.43
2018-03-23T08:43:29.331Z,78.03
2018-03-23T08:46:00.076Z,51.50
2018-03-23T08:48:30.645Z,51.73
2018-03-23T08:51:01.950Z,42.53
2018-03-23T08:53:32.957Z,63.33
2018-03-23T08:56:03.645Z,63.17
2018-03-23T08:58:34.150Z,61.07
2018-03-23T09:01:05.168Z,50.87
2018-03-23T09:03:36.476Z,66.23
2018-03-23T09:06:06.983Z,51.73
2018-03-23T09:08:44.772Z,49.40
2018-03-23T09:11:17.138Z,41.97
2018-03-23T09:13:49.293Z,42.07
2018-03-23T09:16:21.270Z,33.03
2018-03-23T09:18:53.326Z,41.10
2018-03-23T09:21:28.132Z,51.77
2018-03-23T09:24:00.337Z,36.40
2018-03-23T09:26:32.247Z,51.30
2018-03-23T09:29:04.551Z,35.30
2018-03-23T09:31:37.577Z,44.03
2018-03-23T09:34:11.708Z,48.47
2018-03-23T09:36:47.449Z,58.77
2018-03-23T09:39:19.733Z,41.07
2018-03-23T09:41:53.235Z,55.40
2018-03-23T09:44:25.121Z,39.03
2018-03-23T09:46:57.437Z,42.37
2018-03-23T09:49:28.355Z,40.00
2018-03-23T09:51:59.682Z,40.80
2018-03-23T09:54:31.068Z,31.47
2018-03-23T09:57:01.499Z,27.60
2018-03-23T09:59:32.282Z,31.10
2018-03-23T10:02:02.972Z,37.17
2018-03-23T10:04:33.064Z,34.43
2018-03-23T10:07:03.311Z,31.10
2018-03-23T10:09:33.867Z,30.90
2018-03-23T10:12:04.816Z,42.33
2018-03-23T10:14:35.106Z,31.03
2018-03-23T10:17:05.850Z,42.53
2018-03-23T10:19:40.299Z,45.40
2018-03-23T10:22:11.334Z,39.10
2018-03-23T10:24:47.257Z,28.20
2018-03-23T10:27:17.860Z,43.63
2018-03-23T10:29:48.632Z,56.00
2018-03-23T10:32:20.469Z,31.70
2018-03-23T10:34:51.194Z,40.90
2018-03-23T10:37:22.472Z,52.03
2018-03-23T10:39:54.793Z,35.13
2018-03-23T10:42:27.914Z,41.87
2018-03-23T10:44:59.219Z,48.17
2018-03-23T10:47:29.845Z,26.10
2018-03-23T10:50:01.313Z,37.83
2018-03-23T10:52:31.858Z,38.33
2018-03-23T10:55:03.231Z,46.97
2018-03-23T10:57:34.355Z,39.83
2018-03-23T11:00:06.459Z,48.13
2018-03-23T11:02:42.372Z,65.50
2018-03-23T11:05:13.556Z,70.23
2018-03-23T11:07:47.907Z,43.53
2018-03-23T11:10:21.805Z,29.30
2018-03-23T11:13:00.478Z,45.77
2018-03-23T11:15:31.728Z,57.77
2018-03-23T11:18:02.014Z,35.53
2018-03-23T11:20:34.896Z,50.17
2018-03-23T11:23:06.265Z,60.27
2018-03-23T11:25:36.628Z,44.70
2018-03-23T11:28:07.145Z,38.83
2018-03-23T11:30:37.544Z,61.43
2018-03-23T11:33:07.715Z,69.60
2018-03-23T11:35:38.895Z,81.03
2018-03-23T11:38:10.650Z,58.27
2018-03-23T11:40:42.710Z,36.30
2018-03-23T11:43:15.437Z,48.73
2018-03-23T11:45:47.965Z,38.60
2018-03-23T11:48:19.038Z,57.27
2018-03-23T11:50:50.260Z,45.20
2018-03-23T11:53:20.921Z,36.23
2018-03-23T11:55:54.795Z,47.57
2018-03-23T11:58:26.214Z,60.30
2018-03-23T12:01:00.581Z,58.67
2018-03-23T12:03:32.143Z,48.13
2018-03-23T12:06:05.029Z,50.70
2018-03-23T12:08:35.885Z,38.87
2018-03-23T12:11:06.359Z,41.03
2018-03-23T12:13:38.605Z,37.70
2018-03-23T12:16:09.259Z,35.87
2018-03-23T12:18:41.661Z,33.77
2018-03-23T12:21:13.425Z,36.63
2018-03-23T12:23:45.978Z,45.73
2018-03-23T12:26:18.980Z,36.20
2018-03-23T12:28:50.568Z,54.00
2018-03-23T12:31:21.523Z,42.30
2018-03-23T12:33:52.240Z,47.70
2018-03-23T12:36:23.639Z,26.80
2018-03-23T12:38:54.383Z,69.43
2018-03-23T12:41:25.933Z,51.27
2018-03-23T12:43:56.704Z,36.20
2018-03-23T12:46:27.449Z,43.40
2018-03-23T12:48:58.740Z,37.00
2018-03-23T12:51:29.377Z,27.50
2018-03-23T12:54:02.630Z,43.73
2018-03-23T12:56:33.029Z,36.33
2018-03-23T12:59:03.504Z,25.67
2018-03-23T13:01:34.599Z,42.93
2018-03-23T13:04:05.921Z,30.03
2018-03-23T13:06:37.764Z,47.53
2018-03-23T13:09:08.198Z,33.60
2018-03-23T13:11:38.226Z,28.93
2018-03-23T13:14:08.632Z,47.33
2018-03-23T13:16:42.675Z,40.63
2018-03-23T13:19:13.061Z,33.13
2018-03-23T13:21:45.862Z,28.43
2018-03-23T13:24:17.587Z,36.17
2018-03-23T13:26:47.778Z,25.83
2018-03-23T13:29:19.976Z,26.83
2018-03-23T13:31:50.618Z,26.10
2018-03-23T13:34:21.932Z,29.60
2018-03-23T13:36:57.788Z,36.73
2018-03-23T13:39:27.982Z,25.20
2018-03-23T13:41:58.891Z,35.60
2018-03-23T13:44:29.516Z,47.97
2018-03-23T13:47:00.391Z,28.73
2018-03-23T13:49:30.811Z,26.87
2018-03-23T13:52:01.314Z,20.33
2018-03-23T13:54:32.004Z,30.40
2018-03-23T13:57:04.358Z,39.77
2018-03-23T14:00:11.346Z,18.07
2018-03-23T14:02:44.509Z,25.40
2018-03-23T14:05:15.456Z,22.20
2018-03-23T14:07:46.778Z,19.90
2018-03-23T14:10:18.050Z,29.33
2018-03-23T14:12:48.599Z,27.43
2018-03-23T14:15:19.138Z,17.73
2018-03-23T14:17:51.760Z,25.80
2018-03-23T14:20:23.999Z,19.93
2018-03-23T14:22:59.972Z,20.17
2018-03-23T14:25:30.672Z,20.37
2018-03-23T14:28:01.991Z,40.77
2018-03-23T14:30:32.217Z,25.27
2018-03-23T14:33:02.612Z,47.30
2018-03-23T14:35:33.008Z,19.83
2018-03-23T14:38:03.296Z,23.30
2018-03-23T14:40:34.047Z,30.87
2018-03-23T14:43:04.592Z,21.10
2018-03-23T14:45:34.880Z,18.67
2018-03-23T14:48:05.536Z,25.47
2018-03-23T14:50:36.449Z,23.43
2018-03-23T14:53:07.827Z,19.50
2018-03-23T14:55:38.904Z,32.40
2018-03-23T14:58:09.746Z,28.83
2018-03-23T15:00:41.096Z,33.97
2018-03-23T15:03:13.177Z,22.10
2018-03-23T15:05:43.513Z,20.20
2018-03-23T15:08:17.395Z,25.80
2018-03-23T15:10:48.108Z,22.90
2018-03-23T15:13:18.719Z,22.97
2018-03-23T15:15:50.065Z,24.50
2018-03-23T15:18:20.427Z,24.40
2018-03-23T15:20:50.811Z,35.90
2018-03-23T15:23:22.069Z,23.80
2018-03-23T15:25:52.982Z,25.73
2018-03-23T15:28:23.979Z,22.80
2018-03-23T15:30:54.742Z,30.73
2018-03-23T15:33:26.325Z,18.70
2018-03-23T15:35:56.700Z,20.27
2018-03-23T15:38:35.812Z,19.97
2018-03-23T15:41:18.183Z,19.03
2018-03-23T15:43:59.924Z,33.73
2018-03-23T15:46:39.159Z,63.60
2018-03-23T15:49:10.052Z,20.23
2018-03-23T15:51:41.644Z,27.20
2018-03-23T15:54:13.662Z,34.77
2018-03-23T15:56:45.523Z,24.20
2018-03-23T15:59:16.931Z,28.30
2018-03-23T16:01:47.507Z,44.00
2018-03-23T16:04:28.491Z,28.40
2018-03-23T16:07:15.818Z,43.80
2018-03-23T16:09:48.848Z,34.57
2018-03-23T16:12:23.497Z,82.33
2018-03-23T16:14:55.844Z,35.47
2018-03-23T16:17:35.762Z,34.30
2018-03-23T16:20:06.226Z,33.20
2018-03-23T16:22:36.672Z,36.13
2018-03-23T16:25:08.175Z,31.40
2018-03-23T16:27:51.585Z,39.53
2018-03-23T16:30:31.967Z,30.40
2018-03-23T16:33:05.049Z,31.70
2018-03-23T16:35:35.719Z,32.80
2018-03-23T16:38:07.721Z,31.37
2018-03-23T16:40:38.140Z,51.17
2018-03-23T16:43:12.217Z,47.67
2018-03-23T16:45:42.613Z,44.47
2018-03-23T16:48:12.963Z,62.93
2018-03-23T16:50:45.133Z,42.40
2018-03-23T16:53:16.617Z,54.00
2018-03-23T16:55:49.906Z,47.00
2018-03-23T16:58:21.269Z,48.93
2018-03-23T17:00:56.539Z,39.17
2018-03-23T17:03:28.727Z,66.20
2018-03-23T17:05:58.850Z,47.83
2018-03-23T17:08:31.389Z,47.07
2018-03-23T17:11:01.973Z,52.43
2018-03-23T17:13:33.439Z,62.60
2018-03-23T17:16:04.364Z,53.53
2018-03-23T17:18:35.089Z,32.80
2018-03-23T17:21:05.784Z,48.53
2018-03-23T17:23:36.130Z,45.57
2018-03-23T17:26:09.172Z,43.63
2018-03-23T17:28:39.838Z,32.73
2018-03-23T17:31:10.297Z,38.93
2018-03-23T17:33:42.884Z,35.07
2018-03-23T17:36:13.577Z,36.40
2018-03-23T17:38:51.323Z,33.73
2018-03-23T17:41:22.391Z,36.57
2018-03-23T17:43:53.103Z,39.63
2018-03-23T17:46:25.054Z,55.33
2018-03-23T17:51:40.460Z,66.70
2018-03-23T17:54:20.768Z,158.50
2018-03-23T17:56:53.147Z,43.47
2018-03-23T17:59:33.950Z,89.17
2018-03-23T18:02:05.821Z,110.10
2018-03-23T18:04:38.256Z,66.53
2018-03-23T18:07:09.609Z,58.63
2018-03-23T18:09:41.616Z,81.83
2018-03-23T18:12:19.006Z,60.23
2018-03-23T18:15:08.267Z,48.97
2018-03-23T18:17:45.266Z,54.13
2018-03-23T18:20:16.072Z,52.87
2018-03-23T18:22:47.704Z,61.20
2018-03-23T18:25:19.536Z,47.57
2018-03-23T18:27:52.505Z,87.17
2018-03-23T18:30:26.048Z,71.60
2018-03-23T18:33:04.368Z,123.83
2018-03-23T18:35:37.786Z,60.63
2018-03-23T18:38:09.740Z,44.90
2018-03-23T18:40:40.310Z,119.60
2018-03-23T18:43:11.372Z,67.57
2018-03-23T18:45:42.230Z,47.97
2018-03-23T18:51:08.173Z,60.03
2018-03-23T18:53:47.006Z,73.53
2018-03-23T18:56:17.996Z,110.03
2018-03-23T18:58:49.995Z,51.97
2018-03-23T19:01:20.374Z,39.27
2018-03-23T19:03:51.348Z,54.80
2018-03-23T19:06:22.587Z,34.97
2018-03-23T19:08:53.190Z,53.00
2018-03-23T19:11:25.216Z,118.87
2018-03-23T19:14:00.883Z,42.77
2018-03-23T19:16:33.321Z,73.20
2018-03-23T19:19:13.400Z,70.90
2018-03-23T19:21:55.543Z,62.70
2018-03-23T19:24:35.589Z,60.70
2018-03-23T19:27:15.360Z,54.40
2018-03-23T19:29:48.680Z,119.57
2018-03-23T19:33:23.369Z,129.27
2018-03-23T19:35:56.488Z,45.73
2018-03-23T19:38:29.474Z,155.07
2018-03-23T19:41:05.576Z,78.93
2018-03-23T19:43:41.076Z,56.97
2018-03-23T19:46:21.124Z,49.40
2018-03-23T19:49:00.220Z,168.37
2018-03-23T19:51:32.924Z,43.70
2018-03-23T19:54:20.397Z,77.50
2018-03-23T19:57:04.432Z,91.13
2018-03-23T19:59:44.813Z,115.37
2018-03-23T20:02:16.098Z,64.27
2018-03-23T20:04:47.047Z,64.20
2018-03-23T20:07:28.141Z,112.40
2018-03-23T20:10:00.671Z,100.97
2018-03-23T20:12:33.605Z,66.73
2018-03-23T20:15:03.776Z,104.43
2018-03-23T20:17:38.842Z,206.27
2018-03-23T20:20:13.848Z,219.53
2018-03-23T20:22:43.971Z,158.80
2018-03-23T20:25:15.189Z,49.17
2018-03-23T20:27:49.668Z,141.00
2018-03-23T20:30:21.101Z,207.07
2018-03-23T20:32:51.638Z,43.77
2018-03-23T20:35:30.839Z,92.30
2018-03-23T20:38:02.560Z,70.00
2018-03-23T20:40:45.641Z,84.00
2018-03-23T20:43:25.205Z,130.37
2018-03-23T20:46:02.332Z,75.77
2018-03-23T20:48:42.165Z,57.47
2018-03-23T20:51:14.316Z,54.00
2018-03-23T20:53:45.863Z,33.40
2018-03-23T20:56:23.958Z,58.37
2018-03-23T20:59:01.039Z,93.37
2018-03-23T21:01:41.960Z,86.30
2018-03-23T21:04:31.139Z,122.73
2018-03-23T21:07:12.372Z,115.63
2018-03-23T21:09:45.823Z,82.03
2018-03-23T21:12:22.194Z,245.03
2018-03-23T21:14:53.388Z,45.40
2018-03-23T21:17:36.168Z,69.37
2018-03-23T21:20:19.053Z,63.90
2018-03-23T21:25:58.650Z,51.50
2018-03-23T21:28:42.187Z,43.63
2018-03-23T21:34:14.975Z,81.53
2018-03-23T21:37:05.977Z,194.43
2018-03-23T21:39:44.677Z,121.47
2018-03-23T21:42:33.175Z,106.83
2018-03-23T21:45:16.397Z,76.73
2018-03-23T21:48:02.742Z,153.03
2018-03-23T21:50:34.390Z,78.90
2018-03-23T21:53:08.443Z,70.17
2018-03-23T21:55:39.449Z,76.47
2018-03-23T21:58:10.184Z,97.67
2018-03-23T22:00:40.789Z,64.80
2018-03-23T22:03:11.265Z,92.03
2018-03-23T22:05:42.539Z,62.47
2018-03-23T22:08:21.763Z,37.00
2018-03-23T22:11:04.401Z,58.97
2018-03-23T22:13:44.921Z,202.10
2018-03-23T22:16:16.198Z,41.50
2018-03-23T22:18:51.844Z,53.37
2018-03-23T22:21:28.414Z,50.63
2018-03-23T22:24:03.673Z,96.90
2018-03-23T22:26:34.232Z,106.30
2018-03-23T22:29:15.029Z,96.47
2018-03-23T22:31:51.652Z,54.27
2018-03-23T22:34:33.289Z,189.13
2018-03-23T22:37:05.529Z,82.17
2018-03-23T22:39:37.106Z,122.27
2018-03-23T22:42:14.639Z,48.23
2018-03-23T22:44:48.728Z,69.93
2018-03-23T22:55:52.952Z,84.97
2018-03-23T22:58:23.648Z,98.57
2018-03-23T23:00:55.743Z,49.20
2018-03-23T23:03:28.412Z,46.60
2018-03-23T23:06:00.287Z,117.90
2018-03-23T23:08:40.457Z,109.13
2018-03-23T23:11:19.069Z,82.70
2018-03-23T23:13:50.821Z,41.27
2018-03-23T23:16:24.297Z,96.73
2018-03-23T23:19:01.056Z,186.53
2018-03-23T23:21:34.125Z,200.30
2018-03-23T23:24:05.191Z,72.83
2018-03-23T23:26:46.405Z,79.47
2018-03-23T23:29:18.877Z,122.70
2018-03-23T23:31:49.206Z,199.30
2018-03-23T23:34:34.475Z,96.97
2018-03-23T23:37:14.747Z,160.33
2018-03-23T23:39:51.243Z,74.17
2018-03-23T23:42:37.205Z,75.50
2018-03-23T23:45:12.885Z,358.37
2018-03-23T23:47:52.029Z,375.13
2018-03-23T23:50:49.812Z,57.60
2018-03-23T23:53:25.237Z,76.63
2018-03-23T23:56:02.424Z,287.60
2018-03-23T23:58:35.618Z,102.10
